Terminal Aerodrome Forecast
Issued by NWS

Home | Current Version | Previous Version | Text Only | Print | Product List | Glossary On
Versions: 1 2 3 4 5 6 7 8 9 10 11 12 13 14 15 16 17
412
FTUS41 KPBZ 011731
TAFDUJ
TAF
KDUJ 011731Z 0118/0218 22013G26KT 6SM -SHRA OVC040
     FM012200 23016G30KT 5SM -SHRA VCTS OVC035CB
     FM020100 28019G33KT P6SM VCSH OVC025
     FM021600 28016G25KT P6SM BKN030=

USA.gov is the U.S. government's official web portal to all federal, state and local government web resources and services.